sensor_id;sensor_type;location;lat;lon;timestamp;pressure;altitude;pressure_sealevel;temperature;humidity
50057;BME280;36875;49.468;11.200;2022-12-20T00:02:02;98573.94;;;25.83;29.58
50057;BME280;36875;49.468;11.200;2022-12-20T00:04:27;98576.16;;;25.89;29.18
50057;BME280;36875;49.468;11.200;2022-12-20T00:06:54;98572.38;;;25.73;29.62
50057;BME280;36875;49.468;11.200;2022-12-20T00:09:20;98563.47;;;25.67;29.74
50057;BME280;36875;49.468;11.200;2022-12-20T00:11:46;98575.41;;;25.80;29.31
50057;BME280;36875;49.468;11.200;2022-12-20T00:14:11;98563.16;;;25.39;29.68
50057;BME280;36875;49.468;11.200;2022-12-20T00:16:37;98564.09;;;25.43;29.82
50057;BME280;36875;49.468;11.200;2022-12-20T00:19:05;98557.50;;;25.35;29.87
50057;BME280;36875;49.468;11.200;2022-12-20T00:21:32;98555.94;;;25.55;29.68
50057;BME280;36875;49.468;11.200;2022-12-20T00:23:59;98551.53;;;25.25;30.07
50057;BME280;36875;49.468;11.200;2022-12-20T00:26:26;98554.91;;;25.21;30.28
50057;BME280;36875;49.468;11.200;2022-12-20T00:28:53;98557.94;;;24.99;30.61
50057;BME280;36875;49.468;11.200;2022-12-20T00:31:19;98531.72;;;24.93;30.54
50057;BME280;36875;49.468;11.200;2022-12-20T00:33:47;98542.47;;;25.15;30.04
50057;BME280;36875;49.468;11.200;2022-12-20T00:36:14;98570.75;;;24.86;30.68
50057;BME280;36875;49.468;11.200;2022-12-20T00:38:39;98579.81;;;24.87;30.63
50057;BME280;36875;49.468;11.200;2022-12-20T00:41:08;98567.38;;;24.89;30.70
50057;BME280;36875;49.468;11.200;2022-12-20T00:43:34;98565.63;;;24.76;30.76
50057;BME280;36875;49.468;11.200;2022-12-20T00:46:00;98564.16;;;24.70;30.76
50057;BME280;36875;49.468;11.200;2022-12-20T00:48:27;98568.78;;;24.95;30.14
50057;BME280;36875;49.468;11.200;2022-12-20T00:50:57;98572.06;;;24.89;30.57
50057;BME280;36875;49.468;11.200;2022-12-20T00:53:22;98551.88;;;24.67;30.94
50057;BME280;36875;49.468;11.200;2022-12-20T00:55:48;98567.44;;;24.63;31.01
50057;BME280;36875;49.468;11.200;2022-12-20T00:58:15;98574.38;;;24.69;30.59
50057;BME280;36875;49.468;11.200;2022-12-20T01:00:40;98570.97;;;24.63;30.75
50057;BME280;36875;49.468;11.200;2022-12-20T01:03:06;98579.22;;;24.55;31.00
50057;BME280;36875;49.468;11.200;2022-12-20T01:05:32;98573.56;;;24.60;30.79
50057;BME280;36875;49.468;11.200;2022-12-20T01:07:57;98564.16;;;24.70;30.84
50057;BME280;36875;49.468;11.200;2022-12-20T01:10:23;98559.31;;;24.49;30.94
50057;BME280;36875;49.468;11.200;2022-12-20T01:12:48;98559.31;;;24.49;30.88
50057;BME280;36875;49.468;11.200;2022-12-20T01:15:16;98565.28;;;24.42;30.87
50057;BME280;36875;49.468;11.200;2022-12-20T01:17:41;98536.00;;;24.47;30.74
50057;BME280;36875;49.468;11.200;2022-12-20T01:20:07;98538.41;;;24.48;30.96
50057;BME280;36875;49.468;11.200;2022-12-20T01:22:33;98548.78;;;24.42;31.08
50057;BME280;36875;49.468;11.200;2022-12-20T01:24:59;98555.28;;;24.47;30.98
50057;BME280;36875;49.468;11.200;2022-12-20T01:27:24;98559.34;;;24.32;30.92
50057;BME280;36875;49.468;11.200;2022-12-20T01:29:50;98559.97;;;24.29;30.80
50057;BME280;36875;49.468;11.200;2022-12-20T01:32:17;98546.22;;;24.20;31.30
50057;BME280;36875;49.468;11.200;2022-12-20T01:34:42;98529.41;;;24.13;31.14
50057;BME280;36875;49.468;11.200;2022-12-20T01:37:08;98530.06;;;24.10;31.36
50057;BME280;36875;49.468;11.200;2022-12-20T01:39:34;98519.88;;;24.10;31.32
50057;BME280;36875;49.468;11.200;2022-12-20T01:42:00;98517.44;;;24.09;31.34
50057;BME280;36875;49.468;11.200;2022-12-20T01:47:33;98529.53;;;24.08;31.14
50057;BME280;36875;49.468;11.200;2022-12-20T01:50:02;98545.09;;;24.03;31.06
50057;BME280;36875;49.468;11.200;2022-12-20T01:52:34;98543.28;;;23.90;31.39
50057;BME280;36875;49.468;11.200;2022-12-20T01:55:05;98538.75;;;23.94;31.10
50057;BME280;36875;49.468;11.200;2022-12-20T01:57:36;98533.28;;;23.94;31.11
50057;BME280;36875;49.468;11.200;2022-12-20T02:00:05;98545.41;;;23.93;31.06
50057;BME280;36875;49.468;11.200;2022-12-20T02:02:34;98537.78;;;23.81;31.36
50057;BME280;36875;49.468;11.200;2022-12-20T02:05:01;98537.56;;;23.69;31.47
50057;BME280;36875;49.468;11.200;2022-12-20T02:07:30;98558.78;;;23.77;31.47
50057;BME280;36875;49.468;11.200;2022-12-20T02:09:57;98552.13;;;23.70;31.70
50057;BME280;36875;49.468;11.200;2022-12-20T02:12:26;98541.44;;;23.59;31.59
50057;BME280;36875;49.468;11.200;2022-12-20T02:15:03;98540.00;;;23.71;31.52
50057;BME280;36875;49.468;11.200;2022-12-20T02:17:42;98519.97;;;23.70;31.41
50057;BME280;36875;49.468;11.200;2022-12-20T02:23:15;98522.69;;;23.53;31.66
50057;BME280;36875;49.468;11.200;2022-12-20T02:25:51;98524.25;;;23.45;31.62
50057;BME280;36875;49.468;11.200;2022-12-20T02:28:35;98508.44;;;23.42;31.80
50057;BME280;36875;49.468;11.200;2022-12-20T02:31:10;98508.28;;;23.47;31.69
50057;BME280;36875;49.468;11.200;2022-12-20T02:33:38;98502.13;;;23.41;31.87
50057;BME280;36875;49.468;11.200;2022-12-20T02:36:06;98492.41;;;23.35;31.80
50057;BME280;36875;49.468;11.200;2022-12-20T02:38:34;98478.34;;;23.28;31.87
50057;BME280;36875;49.468;11.200;2022-12-20T02:41:06;98465.09;;;23.30;31.91
50057;BME280;36875;49.468;11.200;2022-12-20T02:43:35;98460.44;;;23.31;31.88
50057;BME280;36875;49.468;11.200;2022-12-20T02:46:22;98460.56;;;23.17;32.19
50057;BME280;36875;49.468;11.200;2022-12-20T02:48:50;98450.53;;;23.21;32.08
50057;BME280;36875;49.468;11.200;2022-12-20T02:51:17;98446.03;;;23.16;32.02
50057;BME280;36875;49.468;11.200;2022-12-20T02:53:44;98442.75;;;23.05;32.12
50057;BME280;36875;49.468;11.200;2022-12-20T02:56:13;98449.16;;;23.01;32.22
50057;BME280;36875;49.468;11.200;2022-12-20T02:58:43;98457.41;;;23.01;32.17
50057;BME280;36875;49.468;11.200;2022-12-20T03:01:16;98468.69;;;22.99;32.20
50057;BME280;36875;49.468;11.200;2022-12-20T03:03:47;98471.28;;;22.96;32.21
50057;BME280;36875;49.468;11.200;2022-12-20T03:06:13;98465.81;;;22.96;32.17
50057;BME280;36875;49.468;11.200;2022-12-20T03:08:38;98457.84;;;22.85;32.30
50057;BME280;36875;49.468;11.200;2022-12-20T03:11:04;98458.09;;;22.75;32.32
50057;BME280;36875;49.468;11.200;2022-12-20T03:13:29;98448.75;;;22.76;32.48
50057;BME280;36875;49.468;11.200;2022-12-20T03:15:55;98461.50;;;22.72;32.32
50057;BME280;36875;49.468;11.200;2022-12-20T03:18:20;98466.34;;;22.75;32.30
50057;BME280;36875;49.468;11.200;2022-12-20T03:20:47;98464.56;;;22.70;32.56
50057;BME280;36875;49.468;11.200;2022-12-20T03:23:13;98462.56;;;22.62;32.62
50057;BME280;36875;49.468;11.200;2022-12-20T03:25:38;98454.03;;;22.64;32.64
50057;BME280;36875;49.468;11.200;2022-12-20T03:28:04;98448.19;;;22.57;32.63
50057;BME280;36875;49.468;11.200;2022-12-20T03:30:29;98448.47;;;22.46;32.91
50057;BME280;36875;49.468;11.200;2022-12-20T03:32:55;98439.56;;;22.41;32.77
50057;BME280;36875;49.468;11.200;2022-12-20T03:35:20;98467.59;;;22.38;32.74
50057;BME280;36875;49.468;11.200;2022-12-20T03:37:47;98474.66;;;22.30;32.88
50057;BME280;36875;49.468;11.200;2022-12-20T03:40:13;98471.50;;;22.23;33.06
50057;BME280;36875;49.468;11.200;2022-12-20T03:42:40;98457.31;;;22.21;33.26
50057;BME280;36875;49.468;11.200;2022-12-20T03:45:06;98460.06;;;22.21;32.95
50057;BME280;36875;49.468;11.200;2022-12-20T03:47:32;98448.09;;;22.17;32.93
50057;BME280;36875;49.468;11.200;2022-12-20T03:49:57;98439.53;;;22.18;32.99
50057;BME280;36875;49.468;11.200;2022-12-20T03:54:50;98464.00;;;22.06;33.08
50057;BME280;36875;49.468;11.200;2022-12-20T03:57:15;98462.16;;;22.01;33.33
50057;BME280;36875;49.468;11.200;2022-12-20T03:59:41;98440.25;;;21.79;33.59
50057;BME280;36875;49.468;11.200;2022-12-20T04:02:07;98476.13;;;21.91;33.23
50057;BME280;36875;49.468;11.200;2022-12-20T04:04:33;98447.78;;;21.95;33.23
50057;BME280;36875;49.468;11.200;2022-12-20T04:06:59;98469.63;;;21.87;33.41
50057;BME280;36875;49.468;11.200;2022-12-20T04:09:24;98465.41;;;21.81;33.50
50057;BME280;36875;49.468;11.200;2022-12-20T04:11:51;98464.91;;;21.79;33.57
50057;BME280;36875;49.468;11.200;2022-12-20T04:14:16;98460.03;;;21.75;33.69
50057;BME280;36875;49.468;11.200;2022-12-20T04:16:42;98453.25;;;21.73;33.64
50057;BME280;36875;49.468;11.200;2022-12-20T04:19:08;98442.72;;;21.66;33.71
50057;BME280;36875;49.468;11.200;2022-12-20T04:21:34;98447.00;;;21.59;33.94
50057;BME280;36875;49.468;11.200;2022-12-20T04:24:01;98451.69;;;21.58;33.81
50057;BME280;36875;49.468;11.200;2022-12-20T04:26:27;98444.81;;;21.47;33.81
50057;BME280;36875;49.468;11.200;2022-12-20T04:28:54;98441.75;;;21.48;33.54
50057;BME280;36875;49.468;11.200;2022-12-20T04:31:20;98434.03;;;21.36;33.83
50057;BME280;36875;49.468;11.200;2022-12-20T04:33:46;98437.78;;;21.41;34.18
50057;BME280;36875;49.468;11.200;2022-12-20T04:36:14;98427.28;;;21.34;34.00
50057;BME280;36875;49.468;11.200;2022-12-20T04:38:40;98419.97;;;21.29;34.11
50057;BME280;36875;49.468;11.200;2022-12-20T04:41:06;98423.69;;;21.33;33.88
50057;BME280;36875;49.468;11.200;2022-12-20T04:43:31;98432.66;;;21.25;34.25
50057;BME280;36875;49.468;11.200;2022-12-20T04:45:58;98423.81;;;21.28;33.99
50057;BME280;36875;49.468;11.200;2022-12-20T04:48:25;98425.25;;;21.26;33.99
50057;BME280;36875;49.468;11.200;2022-12-20T04:50:55;98426.69;;;21.23;34.07
50057;BME280;36875;49.468;11.200;2022-12-20T04:53:21;98425.97;;;21.17;34.38
50057;BME280;36875;49.468;11.200;2022-12-20T04:56:06;98428.50;;;21.14;34.00
50057;BME280;36875;49.468;11.200;2022-12-20T04:58:31;98381.44;;;20.75;34.61
50057;BME280;36875;49.468;11.200;2022-12-20T05:00:58;98428.41;;;21.05;34.45
50057;BME280;36875;49.468;11.200;2022-12-20T05:03:25;98423.34;;;20.98;34.31
50057;BME280;36875;49.468;11.200;2022-12-20T05:05:51;98417.56;;;21.00;34.19
50057;BME280;36875;49.468;11.200;2022-12-20T05:08:17;98408.47;;;20.91;34.59
50057;BME280;36875;49.468;11.200;2022-12-20T05:10:43;98394.28;;;20.89;34.73
50057;BME280;36875;49.468;11.200;2022-12-20T05:13:09;98398.94;;;20.88;34.63
50057;BME280;36875;49.468;11.200;2022-12-20T05:15:35;98397.09;;;20.84;34.74
50057;BME280;36875;49.468;11.200;2022-12-20T05:18:03;98400.44;;;20.80;34.82
50057;BME280;36875;49.468;11.200;2022-12-20T05:20:29;98396.81;;;20.71;34.68
50057;BME280;36875;49.468;11.200;2022-12-20T05:22:55;98402.59;;;20.70;35.03
50057;BME280;36875;49.468;11.200;2022-12-20T05:25:42;98394.50;;;20.65;34.88
50057;BME280;36875;49.468;11.200;2022-12-20T05:28:34;98390.75;;;20.60;34.84
50057;BME280;36875;49.468;11.200;2022-12-20T05:31:00;98387.44;;;20.58;35.13
50057;BME280;36875;49.468;11.200;2022-12-20T05:33:28;98385.03;;;20.57;35.00
50057;BME280;36875;49.468;11.200;2022-12-20T05:35:54;98386.44;;;20.54;34.87
50057;BME280;36875;49.468;11.200;2022-12-20T05:38:19;98382.59;;;20.55;34.87
50057;BME280;36875;49.468;11.200;2022-12-20T05:40:47;98370.13;;;20.49;34.89
50057;BME280;36875;49.468;11.200;2022-12-20T05:43:12;98369.84;;;20.51;35.18
50057;BME280;36875;49.468;11.200;2022-12-20T05:45:38;98357.88;;;20.47;34.94
50057;BME280;36875;49.468;11.200;2022-12-20T05:48:03;98364.78;;;20.44;34.70
50057;BME280;36875;49.468;11.200;2022-12-20T05:50:31;98362.75;;;20.36;34.63
50057;BME280;36875;49.468;11.200;2022-12-20T05:52:56;98364.97;;;20.34;35.01
50057;BME280;36875;49.468;11.200;2022-12-20T05:55:22;98357.91;;;20.33;34.92
50057;BME280;36875;49.468;11.200;2022-12-20T05:57:47;98356.84;;;20.29;35.02
50057;BME280;36875;49.468;11.200;2022-12-20T06:00:14;98370.53;;;20.29;35.07
50057;BME280;36875;49.468;11.200;2022-12-20T06:02:39;98384.81;;;20.26;35.12
50057;BME280;36875;49.468;11.200;2022-12-20T06:05:05;98401.81;;;20.22;34.94
50057;BME280;36875;49.468;11.200;2022-12-20T06:07:34;98392.09;;;20.16;35.05
50057;BME280;36875;49.468;11.200;2022-12-20T06:09:59;98395.31;;;20.18;34.84
50057;BME280;36875;49.468;11.200;2022-12-20T06:12:25;98388.50;;;20.16;34.72
50057;BME280;36875;49.468;11.200;2022-12-20T06:14:50;98345.75;;;19.78;35.08
50057;BME280;36875;49.468;11.200;2022-12-20T06:17:17;98374.19;;;19.91;34.39
50057;BME280;36875;49.468;11.200;2022-12-20T06:19:44;98383.41;;;19.95;34.38
50057;BME280;36875;49.468;11.200;2022-12-20T06:22:10;98386.16;;;19.95;34.73
50057;BME280;36875;49.468;11.200;2022-12-20T06:24:36;98379.38;;;19.93;34.45
50057;BME280;36875;49.468;11.200;2022-12-20T06:27:03;98388.97;;;19.90;34.55
50057;BME280;36875;49.468;11.200;2022-12-20T06:29:31;98382.09;;;19.93;34.73
50057;BME280;36875;49.468;11.200;2022-12-20T06:31:57;98370.25;;;19.83;34.73
50057;BME280;36875;49.468;11.200;2022-12-20T06:34:22;98359.00;;;19.66;34.93
50057;BME280;36875;49.468;11.200;2022-12-20T06:36:48;98366.03;;;19.72;34.60
50057;BME280;36875;49.468;11.200;2022-12-20T06:39:13;98359.63;;;19.63;34.85
50057;BME280;36875;49.468;11.200;2022-12-20T06:41:40;98365.28;;;19.67;34.80
50057;BME280;36875;49.468;11.200;2022-12-20T06:44:06;98361.22;;;19.64;34.99
50057;BME280;36875;49.468;11.200;2022-12-20T06:46:32;98368.91;;;19.62;34.88
50057;BME280;36875;49.468;11.200;2022-12-20T06:48:57;98369.34;;;19.69;34.70
50057;BME280;36875;49.468;11.200;2022-12-20T06:51:23;98372.59;;;19.71;34.84
50057;BME280;36875;49.468;11.200;2022-12-20T06:53:49;98395.34;;;19.86;34.69
50057;BME280;36875;49.468;11.200;2022-12-20T06:56:14;98411.72;;;19.86;35.01
50057;BME280;36875;49.468;11.200;2022-12-20T06:58:41;98390.97;;;19.84;34.85
50057;BME280;36875;49.468;11.200;2022-12-20T07:01:07;98400.03;;;19.99;34.45
50057;BME280;36875;49.468;11.200;2022-12-20T07:03:33;98411.09;;;20.08;34.57
50057;BME280;36875;49.468;11.200;2022-12-20T07:05:58;98417.41;;;20.22;34.23
50057;BME280;36875;49.468;11.200;2022-12-20T07:08:24;98418.00;;;20.19;34.32
50057;BME280;36875;49.468;11.200;2022-12-20T07:10:50;98419.69;;;20.62;33.91
50057;BME280;36875;49.468;11.200;2022-12-20T07:13:16;98415.25;;;20.79;33.77
50057;BME280;36875;49.468;11.200;2022-12-20T07:15:43;98408.41;;;21.32;32.85
50057;BME280;36875;49.468;11.200;2022-12-20T07:18:09;98390.84;;;21.33;32.70
50057;BME280;36875;49.468;11.200;2022-12-20T07:20:35;98400.22;;;21.18;32.79
50057;BME280;36875;49.468;11.200;2022-12-20T07:23:01;98402.03;;;21.23;32.39
50057;BME280;36875;49.468;11.200;2022-12-20T07:25:26;98410.78;;;21.62;31.37
50057;BME280;36875;49.468;11.200;2022-12-20T07:27:52;98403.13;;;21.72;31.63
50057;BME280;36875;49.468;11.200;2022-12-20T07:30:18;98405.44;;;21.79;31.62
50057;BME280;36875;49.468;11.200;2022-12-20T07:32:46;98395.03;;;21.67;32.11
50057;BME280;36875;49.468;11.200;2022-12-20T07:35:12;98391.72;;;21.56;31.46
50057;BME280;36875;49.468;11.200;2022-12-20T07:37:38;98388.44;;;21.68;30.52
50057;BME280;36875;49.468;11.200;2022-12-20T07:40:05;98350.72;;;21.65;30.82
50057;BME280;36875;49.468;11.200;2022-12-20T07:42:30;98377.31;;;21.87;30.73
50057;BME280;36875;49.468;11.200;2022-12-20T07:44:56;98374.34;;;22.06;30.52
50057;BME280;36875;49.468;11.200;2022-12-20T07:47:21;98357.59;;;22.08;30.83
50057;BME280;36875;49.468;11.200;2022-12-20T07:49:48;98364.84;;;22.04;30.92
50057;BME280;36875;49.468;11.200;2022-12-20T07:52:15;98368.00;;;21.97;30.84
50057;BME280;36875;49.468;11.200;2022-12-20T07:54:43;98370.63;;;22.02;30.72
50057;BME280;36875;49.468;11.200;2022-12-20T07:57:13;98367.22;;;22.05;30.79
50057;BME280;36875;49.468;11.200;2022-12-20T07:59:43;98367.47;;;22.49;30.41
50057;BME280;36875;49.468;11.200;2022-12-20T08:02:14;98354.94;;;22.25;30.84
50057;BME280;36875;49.468;11.200;2022-12-20T08:04:41;98356.06;;;22.56;30.40
50057;BME280;36875;49.468;11.200;2022-12-20T08:07:08;98357.91;;;22.06;31.05
50057;BME280;36875;49.468;11.200;2022-12-20T08:09:36;98355.09;;;21.98;30.72
50057;BME280;36875;49.468;11.200;2022-12-20T08:12:04;98360.34;;;21.63;31.23
50057;BME280;36875;49.468;11.200;2022-12-20T08:14:32;98358.56;;;21.58;31.24
50057;BME280;36875;49.468;11.200;2022-12-20T08:16:58;98354.53;;;21.42;31.90
50057;BME280;36875;49.468;11.200;2022-12-20T08:19:24;98350.41;;;21.30;31.61
50057;BME280;36875;49.468;11.200;2022-12-20T08:21:49;98329.50;;;21.34;31.35
50057;BME280;36875;49.468;11.200;2022-12-20T08:24:16;98334.66;;;21.50;31.17
50057;BME280;36875;49.468;11.200;2022-12-20T08:26:42;98346.47;;;21.23;31.42
50057;BME280;36875;49.468;11.200;2022-12-20T08:29:07;98333.84;;;21.13;31.54
50057;BME280;36875;49.468;11.200;2022-12-20T08:31:36;98327.38;;;21.31;31.51
50057;BME280;36875;49.468;11.200;2022-12-20T08:34:01;98322.03;;;21.26;31.53
50057;BME280;36875;49.468;11.200;2022-12-20T08:36:27;98312.44;;;21.15;32.11
50057;BME280;36875;49.468;11.200;2022-12-20T08:38:53;98311.22;;;21.21;31.91
50057;BME280;36875;49.468;11.200;2022-12-20T08:41:19;98320.84;;;21.41;31.79
50057;BME280;36875;49.468;11.200;2022-12-20T08:43:45;98326.31;;;21.55;31.34
50057;BME280;36875;49.468;11.200;2022-12-20T08:46:11;98316.41;;;21.68;31.41
50057;BME280;36875;49.468;11.200;2022-12-20T08:48:37;98315.13;;;21.97;31.07
50057;BME280;36875;49.468;11.200;2022-12-20T08:51:04;98315.16;;;22.28;30.61
50057;BME280;36875;49.468;11.200;2022-12-20T08:53:30;98310.50;;;22.46;30.39
50057;BME280;36875;49.468;11.200;2022-12-20T08:56:02;98293.16;;;22.68;30.12
50057;BME280;36875;49.468;11.200;2022-12-20T08:58:30;98311.34;;;23.13;29.51
50057;BME280;36875;49.468;11.200;2022-12-20T09:00:57;98309.94;;;22.66;30.13
50057;BME280;36875;49.468;11.200;2022-12-20T09:03:24;98298.66;;;22.77;29.70
50057;BME280;36875;49.468;11.200;2022-12-20T09:05:50;98298.63;;;22.68;29.85
50057;BME280;36875;49.468;11.200;2022-12-20T09:08:15;98304.94;;;22.77;30.00
50057;BME280;36875;49.468;11.200;2022-12-20T09:10:41;98311.50;;;23.16;29.39
50057;BME280;36875;49.468;11.200;2022-12-20T09:13:07;98305.53;;;23.14;29.64
50057;BME280;36875;49.468;11.200;2022-12-20T09:15:34;98304.53;;;23.19;29.83
50057;BME280;36875;49.468;11.200;2022-12-20T09:18:00;98306.13;;;23.02;30.03
50057;BME280;36875;49.468;11.200;2022-12-20T09:20:26;98300.28;;;22.86;30.49
50057;BME280;36875;49.468;11.200;2022-12-20T09:22:52;98296.13;;;23.06;30.23
50057;BME280;36875;49.468;11.200;2022-12-20T09:25:18;98264.47;;;22.83;30.47
50057;BME280;36875;49.468;11.200;2022-12-20T09:27:43;98302.13;;;23.17;30.41
50057;BME280;36875;49.468;11.200;2022-12-20T09:30:10;98316.34;;;23.45;30.03
50057;BME280;36875;49.468;11.200;2022-12-20T09:32:37;98312.13;;;23.65;29.77
50057;BME280;36875;49.468;11.200;2022-12-20T09:35:02;98321.31;;;23.70;29.85
50057;BME280;36875;49.468;11.200;2022-12-20T09:37:28;98325.81;;;23.74;29.97
50057;BME280;36875;49.468;11.200;2022-12-20T09:39:54;98311.56;;;23.98;29.66
50057;BME280;36875;49.468;11.200;2022-12-20T09:42:21;98307.63;;;24.17;29.37
50057;BME280;36875;49.468;11.200;2022-12-20T09:44:48;98302.66;;;24.10;29.74
50057;BME280;36875;49.468;11.200;2022-12-20T09:47:17;98301.50;;;24.11;29.86
50057;BME280;36875;49.468;11.200;2022-12-20T09:49:48;98303.72;;;24.86;29.04
50057;BME280;36875;49.468;11.200;2022-12-20T09:52:32;98281.56;;;24.82;29.16
50057;BME280;36875;49.468;11.200;2022-12-20T09:55:09;98285.22;;;25.16;28.90
50057;BME280;36875;49.468;11.200;2022-12-20T09:57:49;98298.31;;;24.98;29.02
50057;BME280;36875;49.468;11.200;2022-12-20T10:00:19;98295.75;;;24.93;29.62
50057;BME280;36875;49.468;11.200;2022-12-20T10:02:45;98286.94;;;24.58;30.16
50057;BME280;36875;49.468;11.200;2022-12-20T10:05:14;98284.13;;;24.88;29.02
50057;BME280;36875;49.468;11.200;2022-12-20T10:07:48;98287.81;;;24.92;28.32
50057;BME280;36875;49.468;11.200;2022-12-20T10:10:36;98287.75;;;24.79;28.13
50057;BME280;36875;49.468;11.200;2022-12-20T10:13:15;98276.25;;;24.77;28.42
50057;BME280;36875;49.468;11.200;2022-12-20T10:15:49;98277.16;;;24.90;28.66
50057;BME280;36875;49.468;11.200;2022-12-20T10:18:28;98257.56;;;25.13;28.00
50057;BME280;36875;49.468;11.200;2022-12-20T10:21:05;98244.09;;;25.32;27.88
50057;BME280;36875;49.468;11.200;2022-12-20T10:23:36;98220.59;;;25.14;27.67
50057;BME280;36875;49.468;11.200;2022-12-20T10:26:07;98252.03;;;25.34;27.84
50057;BME280;36875;49.468;11.200;2022-12-20T10:28:36;98244.44;;;25.31;27.69
50057;BME280;36875;49.468;11.200;2022-12-20T10:31:05;98239.53;;;25.15;28.02
50057;BME280;36875;49.468;11.200;2022-12-20T10:33:31;98241.31;;;25.53;27.43
50057;BME280;36875;49.468;11.200;2022-12-20T10:36:21;98179.63;;;25.12;27.73
50057;BME280;36875;49.468;11.200;2022-12-20T10:38:48;98202.22;;;24.85;28.62
50057;BME280;36875;49.468;11.200;2022-12-20T10:41:15;98211.53;;;24.92;28.64
50057;BME280;36875;49.468;11.200;2022-12-20T10:43:45;98217.94;;;24.84;28.59
50057;BME280;36875;49.468;11.200;2022-12-20T10:46:13;98212.63;;;24.79;28.55
50057;BME280;36875;49.468;11.200;2022-12-20T10:48:42;98214.28;;;24.50;29.11
50057;BME280;36875;49.468;11.200;2022-12-20T10:51:14;98210.78;;;24.41;29.56
50057;BME280;36875;49.468;11.200;2022-12-20T10:53:52;98185.97;;;24.20;29.65
50057;BME280;36875;49.468;11.200;2022-12-20T10:56:20;98210.69;;;24.29;29.68
50057;BME280;36875;49.468;11.200;2022-12-20T10:58:55;98192.50;;;24.15;29.82
50057;BME280;36875;49.468;11.200;2022-12-20T11:01:29;98200.75;;;24.36;29.42
50057;BME280;36875;49.468;11.200;2022-12-20T11:03:58;98191.59;;;24.02;30.11
50057;BME280;36875;49.468;11.200;2022-12-20T11:06:28;98191.66;;;23.85;30.38
50057;BME280;36875;49.468;11.200;2022-12-20T11:09:16;98194.72;;;23.83;30.43
50057;BME280;36875;49.468;11.200;2022-12-20T11:12:00;98177.03;;;23.55;29.84
50057;BME280;36875;49.468;11.200;2022-12-20T11:14:26;98192.38;;;23.56;29.66
50057;BME280;36875;49.468;11.200;2022-12-20T11:16:53;98188.38;;;23.36;30.31
50057;BME280;36875;49.468;11.200;2022-12-20T11:22:27;98184.44;;;23.54;30.20
50057;BME280;36875;49.468;11.200;2022-12-20T11:25:05;98192.22;;;23.52;30.41
50057;BME280;36875;49.468;11.200;2022-12-20T11:27:39;98178.84;;;23.42;30.12
50057;BME280;36875;49.468;11.200;2022-12-20T11:30:14;98165.00;;;23.29;30.34
50057;BME280;36875;49.468;11.200;2022-12-20T11:33:10;98167.19;;;23.45;28.38
50057;BME280;36875;49.468;11.200;2022-12-20T11:35:47;98174.72;;;23.09;29.41
50057;BME280;36875;49.468;11.200;2022-12-20T11:38:24;98168.53;;;23.21;29.19
50057;BME280;36875;49.468;11.200;2022-12-20T11:41:15;98163.56;;;23.23;29.46
50057;BME280;36875;49.468;11.200;2022-12-20T11:44:08;98183.25;;;23.25;29.83
50057;BME280;36875;49.468;11.200;2022-12-20T11:46:56;98182.16;;;23.18;30.04
50057;BME280;36875;49.468;11.200;2022-12-20T11:49:40;98170.63;;;23.42;29.87
50057;BME280;36875;49.468;11.200;2022-12-20T11:52:19;98170.44;;;23.94;30.05
50057;BME280;36875;49.468;11.200;2022-12-20T11:54:55;98165.72;;;23.95;29.89
50057;BME280;36875;49.468;11.200;2022-12-20T11:57:26;98156.53;;;23.91;30.18
50057;BME280;36875;49.468;11.200;2022-12-20T11:59:56;98150.91;;;23.78;29.49
50057;BME280;36875;49.468;11.200;2022-12-20T12:02:26;98150.19;;;23.99;29.20
50057;BME280;36875;49.468;11.200;2022-12-20T12:04:56;98134.81;;;24.49;28.99
50057;BME280;36875;49.468;11.200;2022-12-20T12:07:25;98139.13;;;24.79;28.77
50057;BME280;36875;49.468;11.200;2022-12-20T12:09:55;98140.59;;;24.98;28.89
50057;BME280;36875;49.468;11.200;2022-12-20T12:12:26;98142.69;;;25.13;29.03
50057;BME280;36875;49.468;11.200;2022-12-20T12:14:58;98114.38;;;24.92;29.27
50057;BME280;36875;49.468;11.200;2022-12-20T12:17:31;98127.28;;;25.33;29.11
50057;BME280;36875;49.468;11.200;2022-12-20T12:20:21;98128.66;;;25.39;29.20
50057;BME280;36875;49.468;11.200;2022-12-20T12:22:50;98125.25;;;25.55;29.43
50057;BME280;36875;49.468;11.200;2022-12-20T12:25:17;98123.06;;;25.61;29.48
50057;BME280;36875;49.468;11.200;2022-12-20T12:27:44;98106.53;;;25.61;29.76
50057;BME280;36875;49.468;11.200;2022-12-20T12:30:12;98102.72;;;25.77;29.53
50057;BME280;36875;49.468;11.200;2022-12-20T12:32:39;98097.78;;;26.08;28.71
50057;BME280;36875;49.468;11.200;2022-12-20T12:35:17;98101.81;;;26.10;28.85
50057;BME280;36875;49.468;11.200;2022-12-20T12:37:53;98093.81;;;26.33;28.42
50057;BME280;36875;49.468;11.200;2022-12-20T12:40:33;98097.50;;;26.38;28.46
50057;BME280;36875;49.468;11.200;2022-12-20T12:43:44;98096.84;;;26.28;28.27
50057;BME280;36875;49.468;11.200;2022-12-20T12:46:12;98095.34;;;26.31;28.66
50057;BME280;36875;49.468;11.200;2022-12-20T12:48:44;98104.28;;;26.40;28.12
50057;BME280;36875;49.468;11.200;2022-12-20T12:51:13;98096.53;;;26.46;28.34
50057;BME280;36875;49.468;11.200;2022-12-20T12:53:42;98096.34;;;26.39;28.74
50057;BME280;36875;49.468;11.200;2022-12-20T12:56:31;98095.06;;;25.95;29.21
50057;BME280;36875;49.468;11.200;2022-12-20T12:59:19;98063.13;;;25.70;29.22
50057;BME280;36875;49.468;11.200;2022-12-20T13:01:47;98104.06;;;26.21;28.95
50057;BME280;36875;49.468;11.200;2022-12-20T13:04:24;98075.47;;;26.25;28.57
50057;BME280;36875;49.468;11.200;2022-12-20T13:06:55;98051.50;;;25.89;28.67
50057;BME280;36875;49.468;11.200;2022-12-20T13:09:36;98057.13;;;26.05;28.61
50057;BME280;36875;49.468;11.200;2022-12-20T13:15:49;98043.81;;;25.94;29.16